createdAt,value
2022-08-10T00:00:59.179Z,25.72
2022-08-10T00:06:04.463Z,25.83
2022-08-10T00:11:15.465Z,25.81
2022-08-10T00:16:20.487Z,25.77
2022-08-10T00:21:27.346Z,25.28
2022-08-10T00:27:58.782Z,25.41
2022-08-10T00:31:57.998Z,25.35
2022-08-10T00:37:04.767Z,25.13
2022-08-10T00:42:10.018Z,24.97
2022-08-10T00:47:22.590Z,24.98
2022-08-10T00:52:41.539Z,24.93
2022-08-10T00:57:45.384Z,24.95
2022-08-10T01:02:58.717Z,25.05
2022-08-10T01:08:20.471Z,24.85
2022-08-10T01:13:27.948Z,24.46
2022-08-10T01:18:49.504Z,24.47
2022-08-10T01:24:25.117Z,24.02
2022-08-10T01:29:48.922Z,24.24
2022-08-10T01:34:57.493Z,24.22
2022-08-10T01:40:04.045Z,24.17
2022-08-10T01:45:11.725Z,24.18
2022-08-10T01:50:22.317Z,23.98
2022-08-10T01:55:28.712Z,23.99
2022-08-10T02:00:37.331Z,24.17
2022-08-10T02:05:44.107Z,23.77
2022-08-10T02:10:51.268Z,23.34
2022-08-10T02:16:01.631Z,23.09
2022-08-10T02:21:09.119Z,23.05
2022-08-10T02:26:13.798Z,23.11
2022-08-10T02:31:23.327Z,23.02
2022-08-10T02:36:30.243Z,22.74
2022-08-10T02:45:14.590Z,22.64
2022-08-10T02:47:12.290Z,22.73
2022-08-10T02:52:19.984Z,22.70
2022-08-10T02:57:28.883Z,22.16
2022-08-10T03:02:37.556Z,22.04
2022-08-10T03:07:47.706Z,22.09
2022-08-10T03:12:54.544Z,22.04
2022-08-10T03:18:01.482Z,21.75
2022-08-10T03:23:08.157Z,21.70
2022-08-10T03:28:18.249Z,21.61
2022-08-10T03:33:28.512Z,21.67
2022-08-10T03:38:32.276Z,21.79
2022-08-10T03:43:35.988Z,21.34
2022-08-10T03:48:49.305Z,21.29
2022-08-10T03:54:06.042Z,21.22
2022-08-10T03:59:12.463Z,21.41
2022-08-10T04:04:22.892Z,21.15
2022-08-10T04:09:43.341Z,21.13
2022-08-10T04:14:54.524Z,21.18
2022-08-10T04:20:01.725Z,21.35
2022-08-10T04:25:07.952Z,21.31
2022-08-10T04:30:12.527Z,21.27
2022-08-10T04:35:20.178Z,21.23
2022-08-10T04:40:29.592Z,21.14
2022-08-10T04:45:49.201Z,21.03
2022-08-10T04:50:56.631Z,21.10
2022-08-10T04:56:03.226Z,21.12
2022-08-10T05:01:06.903Z,21.11
2022-08-10T05:06:18.001Z,21.06
2022-08-10T05:11:23.959Z,21.04
2022-08-10T05:16:31.667Z,20.73
2022-08-10T05:22:01.475Z,20.30
2022-08-10T05:27:09.977Z,20.00
2022-08-10T05:32:14.506Z,19.82
2022-08-10T05:38:09.488Z,19.74
2022-08-10T05:42:44.663Z,19.63
2022-08-10T05:48:55.067Z,19.52
2022-08-10T05:53:59.274Z,19.46
2022-08-10T05:58:39.036Z,19.43
2022-08-10T06:03:48.607Z,19.36
2022-08-10T06:08:57.201Z,19.30
2022-08-10T06:14:13.053Z,19.11
2022-08-10T06:19:19.742Z,19.04
2022-08-10T06:24:30.307Z,18.96
2022-08-10T06:29:37.304Z,18.89
2022-08-10T06:34:44.095Z,18.77
2022-08-10T06:39:49.467Z,18.69
2022-08-10T06:44:57.488Z,18.62
2022-08-10T06:50:08.807Z,18.52
2022-08-10T06:55:16.736Z,18.31
2022-08-10T07:00:24.311Z,18.29
2022-08-10T07:05:40.354Z,18.16
2022-08-10T07:10:49.937Z,17.99
2022-08-10T07:15:59.661Z,17.95
2022-08-10T07:21:05.251Z,17.97
2022-08-10T07:26:11.148Z,17.92
2022-08-10T07:31:35.406Z,17.91
2022-08-10T07:36:45.484Z,17.79
2022-08-10T07:41:53.802Z,17.79
2022-08-10T07:47:00.896Z,17.77
2022-08-10T07:52:08.140Z,17.70
2022-08-10T07:57:30.627Z,17.57
2022-08-10T08:02:39.482Z,17.48
2022-08-10T08:07:45.026Z,17.40
2022-08-10T08:12:51.948Z,17.36
2022-08-10T08:17:57.502Z,17.35
2022-08-10T08:24:30.839Z,17.34
2022-08-10T08:28:31.125Z,17.26
2022-08-10T08:33:42.268Z,17.14
2022-08-10T08:38:48.228Z,16.92
2022-08-10T08:44:05.465Z,16.90
2022-08-10T08:50:04.798Z,16.78
2022-08-10T08:56:04.580Z,16.72
2022-08-10T09:00:44.425Z,16.74
2022-08-10T09:06:01.764Z,16.71
2022-08-10T09:11:15.910Z,16.67
2022-08-10T09:16:30.613Z,16.70
2022-08-10T09:21:58.750Z,16.72
2022-08-10T09:27:16.305Z,16.76
2022-08-10T09:36:14.339Z,16.63
2022-08-10T09:38:03.739Z,16.67
2022-08-10T09:43:25.995Z,16.53
2022-08-10T09:48:41.557Z,16.56
2022-08-10T09:53:55.576Z,16.49
2022-08-10T09:59:29.308Z,16.38
2022-08-10T10:04:43.750Z,16.34
2022-08-10T10:09:57.567Z,16.33
2022-08-10T10:15:24.065Z,16.26
2022-08-10T10:20:38.249Z,16.15
2022-08-10T10:25:52.573Z,16.13
2022-08-10T10:31:16.817Z,16.21
2022-08-10T10:36:22.963Z,16.11
2022-08-10T10:42:03.175Z,16.09
2022-08-10T10:47:08.351Z,16.01
2022-08-10T10:52:28.520Z,16.06
2022-08-10T10:57:58.770Z,16.05
2022-08-10T11:03:43.614Z,16.09
2022-08-10T11:08:54.001Z,15.93
2022-08-10T11:14:24.801Z,15.73
2022-08-10T11:20:01.270Z,15.75
2022-08-10T11:25:13.932Z,15.69
2022-08-10T11:30:20.776Z,15.73
2022-08-10T11:35:34.813Z,15.74
2022-08-10T11:40:47.446Z,15.71
2022-08-10T11:45:55.782Z,15.70
2022-08-10T11:51:02.163Z,15.68
2022-08-10T11:56:12.026Z,15.65
2022-08-10T12:01:19.810Z,15.70
2022-08-10T12:06:53.743Z,15.64
2022-08-10T12:11:51.547Z,15.63
2022-08-10T12:17:02.846Z,15.60
2022-08-10T12:22:09.577Z,15.52
2022-08-10T12:27:21.452Z,15.55
2022-08-10T12:32:31.866Z,15.54
2022-08-10T12:37:50.804Z,15.46
2022-08-10T12:44:03.807Z,15.37
2022-08-10T12:48:33.989Z,15.43
2022-08-10T12:53:47.888Z,15.36
2022-08-10T12:58:59.275Z,15.29
2022-08-10T13:04:23.620Z,15.36
2022-08-10T13:09:28.387Z,15.26
2022-08-10T13:14:37.887Z,15.09
2022-08-10T13:19:55.304Z,15.18
2022-08-10T13:25:03.658Z,15.22
2022-08-10T13:30:10.513Z,15.18
2022-08-10T13:35:16.841Z,15.21
2022-08-10T13:40:21.706Z,15.26
2022-08-10T13:45:28.333Z,15.36
2022-08-10T13:50:34.758Z,15.39
2022-08-10T13:55:53.368Z,15.49
2022-08-10T14:01:08.967Z,15.54
2022-08-10T14:06:14.880Z,15.71
2022-08-10T14:11:19.929Z,15.84
2022-08-10T14:16:26.056Z,16.00
2022-08-10T14:21:29.892Z,16.46
2022-08-10T14:26:33.636Z,16.53
2022-08-10T14:32:00.670Z,16.83
2022-08-10T14:37:09.629Z,17.54
2022-08-10T14:42:27.324Z,18.13
2022-08-10T14:47:53.311Z,18.64
2022-08-10T14:53:09.665Z,19.07
2022-08-10T14:58:21.118Z,19.42
2022-08-10T15:04:01.369Z,19.88
2022-08-10T15:08:54.292Z,20.54
2022-08-10T15:13:58.631Z,20.94
2022-08-10T15:20:00.636Z,21.37
2022-08-10T15:24:59.067Z,21.62
2022-08-10T15:30:04.575Z,22.11
2022-08-10T15:35:13.355Z,22.86
2022-08-10T15:40:31.262Z,23.39
2022-08-10T15:45:37.367Z,23.96
2022-08-10T15:50:47.285Z,24.65
2022-08-10T15:55:54.398Z,25.07
2022-08-10T16:01:03.024Z,25.45
2022-08-10T16:06:31.769Z,26.34
2022-08-10T16:11:38.710Z,26.64
2022-08-10T16:16:44.678Z,27.12
2022-08-10T16:21:56.576Z,27.52
2022-08-10T16:27:00.815Z,27.80
2022-08-10T16:32:06.991Z,27.98
2022-08-10T16:37:16.507Z,28.31
2022-08-10T16:42:21.755Z,28.39
2022-08-10T16:47:27.788Z,28.60
2022-08-10T16:52:35.000Z,28.42
2022-08-10T16:57:41.366Z,28.64
2022-08-10T17:02:50.161Z,28.95
2022-08-10T17:08:05.077Z,29.17
2022-08-10T17:13:11.931Z,29.30
2022-08-10T17:18:18.011Z,29.49
2022-08-10T17:23:24.177Z,29.86
2022-08-10T17:28:32.873Z,29.94
2022-08-10T17:33:42.256Z,29.79
2022-08-10T17:38:52.432Z,30.01
2022-08-10T17:44:02.852Z,30.42
2022-08-10T17:49:10.127Z,30.43
2022-08-10T17:54:30.653Z,30.43
2022-08-10T17:59:37.239Z,30.81
2022-08-10T18:04:46.858Z,31.10
2022-08-10T18:09:55.036Z,31.16
2022-08-10T18:15:01.715Z,31.44
2022-08-10T18:20:07.214Z,31.46
2022-08-10T18:25:19.152Z,31.46
2022-08-10T18:30:23.156Z,30.91
2022-08-10T18:35:34.485Z,31.38
2022-08-10T18:40:44.143Z,31.04
2022-08-10T18:45:48.453Z,31.10
2022-08-10T18:50:55.123Z,31.47
2022-08-10T18:56:12.049Z,31.21
2022-08-10T19:01:46.832Z,30.89
2022-08-10T19:07:26.366Z,30.75
2022-08-10T19:12:53.607Z,30.44
2022-08-10T19:18:11.720Z,30.33
2022-08-10T19:23:29.456Z,30.40
2022-08-10T19:28:41.983Z,30.47
2022-08-10T19:33:53.313Z,30.50
2022-08-10T19:39:25.941Z,30.42
2022-08-10T19:44:41.864Z,29.96
2022-08-10T19:49:55.413Z,30.25
2022-08-10T19:55:15.041Z,29.80
2022-08-10T20:00:26.897Z,29.88
2022-08-10T20:05:36.359Z,29.66
2022-08-10T20:10:50.534Z,29.44
2022-08-10T20:16:01.494Z,29.16
2022-08-10T20:21:10.876Z,29.44
2022-08-10T20:26:19.959Z,29.78
2022-08-10T20:31:34.345Z,29.89
2022-08-10T20:36:39.950Z,29.97
2022-08-10T20:41:57.531Z,29.84
2022-08-10T20:47:08.751Z,29.68
2022-08-10T20:52:13.551Z,29.91
2022-08-10T20:57:54.829Z,30.18
2022-08-10T21:03:35.264Z,29.95
2022-08-10T21:08:57.085Z,30.30
2022-08-10T21:14:06.219Z,30.53
2022-08-10T21:19:36.387Z,30.52
2022-08-10T21:24:48.861Z,31.08
2022-08-10T21:30:09.261Z,31.59
2022-08-10T21:35:37.360Z,31.79
2022-08-10T21:41:17.419Z,32.07
2022-08-10T21:46:38.751Z,31.82
2022-08-10T21:52:05.413Z,31.85
2022-08-10T21:57:16.455Z,31.97
2022-08-10T22:02:28.151Z,32.06
2022-08-10T22:07:37.241Z,32.02
2022-08-10T22:12:46.906Z,32.08
2022-08-10T22:18:00.701Z,32.03
2022-08-10T22:23:51.079Z,31.85
2022-08-10T22:29:00.903Z,31.77
2022-08-10T22:34:20.827Z,31.41
2022-08-10T22:40:09.907Z,31.52
2022-08-10T22:45:08.637Z,31.50
2022-08-10T22:50:19.445Z,31.38
2022-08-10T22:55:29.936Z,30.97
2022-08-10T23:00:36.371Z,30.90
2022-08-10T23:05:42.833Z,30.75
2022-08-10T23:10:47.835Z,30.47
2022-08-10T23:15:58.574Z,29.73
2022-08-10T23:21:03.554Z,29.56
2022-08-10T23:26:08.384Z,29.43
2022-08-10T23:32:01.102Z,29.40
2022-08-10T23:36:43.087Z,29.36
2022-08-10T23:41:53.284Z,29.02
2022-08-10T23:47:01.761Z,28.94
2022-08-10T23:52:12.257Z,28.45
2022-08-10T23:57:19.216Z,28.06
